createdAt,value
2023-03-16T00:01:43.672Z,3.17
2023-03-16T00:06:45.438Z,3.60
2023-03-16T00:11:47.204Z,2.92
2023-03-16T00:16:49.082Z,2.85
2023-03-16T00:21:51.835Z,3.00
2023-03-16T00:26:55.118Z,2.92
2023-03-16T00:31:57.001Z,3.33
2023-03-16T00:36:59.061Z,3.00
2023-03-16T00:42:00.915Z,3.25
2023-03-16T00:47:03.742Z,2.75
2023-03-16T00:52:07.502Z,2.97
2023-03-16T00:57:10.368Z,3.20
2023-03-16T01:02:12.462Z,2.47
2023-03-16T01:07:15.106Z,3.00
2023-03-16T01:12:19.547Z,2.70
2023-03-16T01:17:22.525Z,3.17
2023-03-16T01:22:24.323Z,2.55
2023-03-16T01:27:26.561Z,2.83
2023-03-16T01:32:29.500Z,2.55
2023-03-16T01:37:31.733Z,3.47
2023-03-16T01:42:41.503Z,2.15
2023-03-16T01:47:43.530Z,1.80
2023-03-16T01:52:45.927Z,2.20
2023-03-16T01:57:48.343Z,2.58
2023-03-16T02:02:55.813Z,2.25
2023-03-16T02:07:59.310Z,2.10
2023-03-16T02:13:01.953Z,1.95
2023-03-16T02:18:04.841Z,2.00
2023-03-16T02:23:18.731Z,2.08
2023-03-16T02:28:29.554Z,2.17
2023-03-16T02:38:34.428Z,2.53
2023-03-16T02:43:39.632Z,1.92
2023-03-16T02:48:53.220Z,2.25
2023-03-16T02:53:55.280Z,2.13
2023-03-16T02:58:57.933Z,2.40
2023-03-16T03:03:59.736Z,2.47
2023-03-16T03:09:02.243Z,2.15
2023-03-16T03:14:04.674Z,2.20
2023-03-16T03:19:06.607Z,2.35
2023-03-16T03:24:09.667Z,2.40
2023-03-16T03:29:11.527Z,2.47
2023-03-16T03:34:13.397Z,2.75
2023-03-16T03:39:15.170Z,2.50
2023-03-16T03:44:16.893Z,2.55
2023-03-16T03:49:18.734Z,2.05
2023-03-16T03:54:20.616Z,2.63
2023-03-16T03:59:22.816Z,2.42
2023-03-16T04:04:24.676Z,2.10
2023-03-16T04:09:26.510Z,3.00
2023-03-16T04:14:30.057Z,2.15
2023-03-16T04:19:31.885Z,3.67
2023-03-16T04:24:34.438Z,2.67
2023-03-16T04:29:36.375Z,2.50
2023-03-16T04:34:39.553Z,1.98
2023-03-16T04:39:42.177Z,2.58
2023-03-16T04:44:48.081Z,2.08
2023-03-16T04:49:49.927Z,2.58
2023-03-16T04:54:51.905Z,2.30
2023-03-16T04:59:53.754Z,2.33
2023-03-16T05:04:55.523Z,2.30
2023-03-16T05:09:57.549Z,2.75
2023-03-16T05:14:59.407Z,2.42
2023-03-16T05:20:02.249Z,2.45
2023-03-16T05:25:05.729Z,2.05
2023-03-16T05:30:09.827Z,2.22
2023-03-16T05:35:15.133Z,2.33
2023-03-16T05:40:17.702Z,2.50
2023-03-16T05:45:19.570Z,1.98
2023-03-16T05:50:21.983Z,2.17
2023-03-16T05:55:23.778Z,2.47
2023-03-16T06:00:26.169Z,2.38
2023-03-16T06:05:28.661Z,1.92
2023-03-16T06:10:30.829Z,1.70
2023-03-16T06:15:32.591Z,2.10
2023-03-16T06:20:34.469Z,2.00
2023-03-16T06:25:37.339Z,1.88
2023-03-16T06:30:41.342Z,1.70
2023-03-16T06:35:43.200Z,1.90
2023-03-16T06:40:45.141Z,1.85
2023-03-16T06:45:47.120Z,1.77
2023-03-16T06:50:49.218Z,1.70
2023-03-16T06:55:51.352Z,1.58
2023-03-16T07:00:54.061Z,1.98
2023-03-16T07:05:55.919Z,1.70
2023-03-16T07:10:57.712Z,1.90
2023-03-16T07:15:59.640Z,2.05
2023-03-16T07:21:01.459Z,1.77
2023-03-16T07:26:03.708Z,1.65
2023-03-16T07:31:06.958Z,1.85
2023-03-16T07:36:10.755Z,1.98
2023-03-16T07:41:12.749Z,2.22
2023-03-16T07:46:15.349Z,1.67
2023-03-16T07:51:17.463Z,1.60
2023-03-16T07:56:19.420Z,1.50
2023-03-16T08:01:22.507Z,2.65
2023-03-16T08:06:25.613Z,1.70
2023-03-16T08:11:27.370Z,1.85
2023-03-16T08:16:29.227Z,2.17
2023-03-16T08:21:31.093Z,1.83
2023-03-16T08:26:32.899Z,1.52
2023-03-16T08:31:35.369Z,1.67
2023-03-16T08:36:37.880Z,1.70
2023-03-16T08:41:40.962Z,1.52
2023-03-16T08:46:42.891Z,1.30
2023-03-16T08:51:45.150Z,1.50
2023-03-16T08:56:47.040Z,1.77
2023-03-16T09:01:49.107Z,1.30
2023-03-16T09:07:05.693Z,1.38
2023-03-16T09:12:09.598Z,1.40
2023-03-16T09:17:11.840Z,1.35
2023-03-16T09:22:13.777Z,1.40
2023-03-16T09:27:16.288Z,0.95
2023-03-16T09:32:18.545Z,1.50
2023-03-16T09:37:21.648Z,1.50
2023-03-16T09:42:51.256Z,1.42
2023-03-16T09:47:57.964Z,1.50
2023-03-16T09:53:18.708Z,1.20
2023-03-16T09:58:22.467Z,1.75
2023-03-16T10:03:49.147Z,1.50
2023-03-16T10:09:24.645Z,1.58
2023-03-16T10:14:45.253Z,1.55
2023-03-16T10:20:00.660Z,1.23
2023-03-16T10:25:40.379Z,1.20
2023-03-16T10:30:43.605Z,1.33
2023-03-16T10:36:05.579Z,1.20
2023-03-16T10:41:22.571Z,0.93
2023-03-16T10:46:28.861Z,1.00
2023-03-16T10:51:38.061Z,1.15
2023-03-16T10:56:40.351Z,0.88
2023-03-16T11:01:46.361Z,0.85
2023-03-16T11:06:54.575Z,0.95
2023-03-16T11:11:56.320Z,0.90
2023-03-16T11:17:10.835Z,1.38
2023-03-16T11:22:17.806Z,1.00
2023-03-16T11:28:00.457Z,0.88
2023-03-16T11:33:02.322Z,0.98
2023-03-16T11:38:26.629Z,1.08
2023-03-16T11:43:31.446Z,1.30
2023-03-16T11:48:52.139Z,1.10
2023-03-16T11:59:51.959Z,1.10
2023-03-16T12:05:28.613Z,1.75
2023-03-16T12:10:34.148Z,1.40
2023-03-16T12:15:39.573Z,1.02
2023-03-16T12:20:54.745Z,1.15
2023-03-16T12:25:59.885Z,0.90
2023-03-16T12:31:09.986Z,0.90
2023-03-16T12:36:30.081Z,0.70
2023-03-16T12:42:16.785Z,1.25
2023-03-16T12:47:44.025Z,0.80
2023-03-16T12:52:51.844Z,0.77
2023-03-16T12:58:04.355Z,1.17
2023-03-16T13:03:14.397Z,1.10
2023-03-16T13:08:18.503Z,1.27
2023-03-16T13:13:25.529Z,1.08
2023-03-16T13:18:39.252Z,0.90
2023-03-16T13:23:56.352Z,0.90
2023-03-16T13:28:58.731Z,0.80
2023-03-16T13:34:00.983Z,0.93
2023-03-16T13:39:17.400Z,0.73
2023-03-16T13:44:19.230Z,0.80
2023-03-16T13:49:21.058Z,1.00
2023-03-16T13:54:37.213Z,0.90
2023-03-16T13:59:40.704Z,0.77
2023-03-16T14:04:43.456Z,0.80
2023-03-16T14:09:46.761Z,0.88
2023-03-16T14:14:54.731Z,0.73
2023-03-16T14:20:02.346Z,0.63
2023-03-16T14:25:06.328Z,0.70
2023-03-16T14:30:16.892Z,0.80
2023-03-16T14:40:31.242Z,1.10
2023-03-16T14:50:37.135Z,0.90
2023-03-16T14:55:39.483Z,1.20
2023-03-16T15:00:52.241Z,0.63
2023-03-16T15:05:55.872Z,0.80
2023-03-16T15:11:07.349Z,0.93
2023-03-16T15:16:13.941Z,0.70
2023-03-16T15:21:24.612Z,0.73
2023-03-16T15:31:29.611Z,0.77
2023-03-16T15:36:31.951Z,0.95
2023-03-16T15:41:46.792Z,0.73
2023-03-16T15:46:49.219Z,0.70
2023-03-16T15:51:51.336Z,1.02
2023-03-16T15:56:55.932Z,1.17
2023-03-16T16:01:57.775Z,0.85
2023-03-16T16:07:02.146Z,0.98
2023-03-16T16:12:04.111Z,0.80
2023-03-16T16:17:19.909Z,1.00
2023-03-16T16:22:22.020Z,1.13
2023-03-16T16:27:24.186Z,1.02
2023-03-16T16:32:26.615Z,1.02
2023-03-16T16:37:28.440Z,1.20
2023-03-16T16:42:30.258Z,1.80
2023-03-16T16:47:32.427Z,1.42
2023-03-16T16:52:34.816Z,1.20
2023-03-16T16:57:37.147Z,1.10
2023-03-16T17:02:47.291Z,2.13
2023-03-16T17:07:51.028Z,1.50
2023-03-16T17:12:56.828Z,1.20
2023-03-16T17:18:07.814Z,1.30
2023-03-16T17:23:39.231Z,1.48
2023-03-16T17:28:45.702Z,1.20
2023-03-16T17:33:47.751Z,1.58
2023-03-16T17:38:50.107Z,1.45
2023-03-16T17:43:56.096Z,8.77
2023-03-16T17:49:00.145Z,5.63
2023-03-16T17:54:02.238Z,2.38
2023-03-16T17:59:19.771Z,1.48
2023-03-16T18:04:26.723Z,1.80
2023-03-16T18:09:28.789Z,1.35
2023-03-16T18:14:39.793Z,1.20
2023-03-16T18:19:43.744Z,1.73
2023-03-16T18:24:46.578Z,1.80
2023-03-16T18:29:48.822Z,1.88
2023-03-16T18:34:52.563Z,1.90
2023-03-16T18:39:55.022Z,1.80
2023-03-16T18:44:57.209Z,1.60
2023-03-16T18:50:02.212Z,1.85
2023-03-16T18:55:04.362Z,1.95
2023-03-16T19:00:08.019Z,2.30
2023-03-16T19:05:16.683Z,1.75
2023-03-16T19:10:25.536Z,1.98
2023-03-16T19:15:30.996Z,1.42
2023-03-16T19:20:35.278Z,1.60
2023-03-16T19:25:40.021Z,1.48
2023-03-16T19:30:42.449Z,1.70
2023-03-16T19:35:51.490Z,1.90
2023-03-16T19:40:59.601Z,1.80
2023-03-16T19:46:01.643Z,1.90
2023-03-16T19:51:05.485Z,1.85
2023-03-16T19:56:22.092Z,2.42
2023-03-16T20:01:32.310Z,1.80
2023-03-16T20:06:35.445Z,1.35
2023-03-16T20:11:39.019Z,2.10
2023-03-16T20:16:41.099Z,1.80
2023-03-16T20:21:43.257Z,1.90
2023-03-16T20:26:46.788Z,2.08
2023-03-16T20:31:48.715Z,1.80
2023-03-16T20:36:50.909Z,1.75
2023-03-16T20:41:53.075Z,1.90
2023-03-16T20:46:54.929Z,2.10
2023-03-16T20:51:56.766Z,2.20
2023-03-16T20:56:58.805Z,1.70
2023-03-16T21:02:01.720Z,1.70
2023-03-16T21:07:06.446Z,1.73
2023-03-16T21:12:26.607Z,1.40
2023-03-16T21:17:31.451Z,1.42
2023-03-16T21:22:36.573Z,1.52
2023-03-16T21:27:39.634Z,1.60
2023-03-16T21:32:41.576Z,1.77
2023-03-16T21:37:43.446Z,1.23
2023-03-16T21:42:46.208Z,1.30
2023-03-16T21:47:48.440Z,1.40
2023-03-16T21:52:51.497Z,1.42
2023-03-16T21:57:54.144Z,1.15
2023-03-16T22:02:58.454Z,1.30
2023-03-16T22:08:02.074Z,1.27
2023-03-16T22:13:03.938Z,1.17
2023-03-16T22:18:27.826Z,1.48
2023-03-16T22:23:35.679Z,1.20
2023-03-16T22:28:38.248Z,1.30
2023-03-16T22:33:40.648Z,1.38
2023-03-16T22:38:43.092Z,1.02
2023-03-16T22:43:45.892Z,1.20
2023-03-16T22:48:47.982Z,1.40
2023-03-16T22:53:51.241Z,1.40
2023-03-16T22:58:56.959Z,2.05
2023-03-16T23:03:59.116Z,1.25
2023-03-16T23:09:00.936Z,1.50
2023-03-16T23:14:02.964Z,1.50
2023-03-16T23:19:15.316Z,1.30
2023-03-16T23:24:24.450Z,1.20
2023-03-16T23:29:26.707Z,1.20
2023-03-16T23:34:28.722Z,1.45
2023-03-16T23:39:30.911Z,1.20
2023-03-16T23:44:32.811Z,1.52
2023-03-16T23:49:37.546Z,1.33
2023-03-16T23:54:39.551Z,1.52
2023-03-16T23:59:42.251Z,1.20
